Accueil
METAR-TAF:

METAR-TAF

Aéroports :

Meiringen, Suisse

latitude: 46-44-25N, longitude: 8-06-36E, altitude: 577 m

Observation

Le bulletin a été fait il y a 46 minutes, à 01:50 UTC
Vent 14 kt de est avec des rafales jusqu'à 28 kt, variant entre nord-est et est/sud-est
Température 13°C
Humidité 38%
Pression 1005 hPa
Visibilité 10 km ou plus
Quelques nuages à une hauteur de 13000 ft

METAR: LSMM 010150Z AUTO 09014G28KT 050V120 9999NDV FEW130 13/M01 Q1005 RMK

Heure: 04:36 (02:36 UTC)


TAF: absent

Observations et prévisions météorologiques de plus de 4000 aéroports (messages METAR et TAF).

Les stations disponibles sont représentées par des disques jaunes et rouges sur la carte.

Passer la souris dessus pour voir le nom de la station.

Cliquer dessus pour voir les observations et prévisions météorologiques.

Pour changer de carte: cliquez sur les boutons verts avec une croix noire pour zoomer, sur le bouton vert avec un tiret pour effectuer un zoom arrière, ou sur les flèches vertes pour les cartes adjacentes.


METAR-TAF: